Terminal Aerodrome Forecast
Issued by NWS

Home | Current Version | Previous Version | Text Only | Print | Product List | Glossary On
Versions: 1 2 3 4 5 6 7 8 9 10 11 12 13 14
625
FTUS42 KFFC 221127
TAFRYY
TAF
KRYY 221127Z 2212/2312 09005KT 3SM -RA BR OVC008
     FM221800 08006KT P6SM VCSH OVC012
     FM222100 08006KT P6SM BKN025
     FM230200 08004KT P6SM BKN015
     FM230600 08003KT 3SM BR OVC008=

USA.gov is the U.S. government's official web portal to all federal, state and local government web resources and services.